Hlavní strana
METAR-TAF:

METAR-TAF

Letiště :

Førde, Norsko

zeměpisná šířka: 61-27N, zeměpisná délka: 005-52E, výška: 150 m

Aktuální stav počasí

Zpráva byla vytvořena před 26 minutami, v 12:50 UTC
Jižní vítr 12 kt
Teplota 8°C
Vlhkost vzduchu 71%
Tlak 1018 hPa
Viditelnost 10 km a více
Polojasno ve výšce 2500 ft
Oblačno až skoro zataženo ve výšce 3000 ft
přeháňky v blízkosti

METAR: ENBL 191250Z 18012KT 9999 VCSH SCT025 BKN030 08/03 Q1018

Čas: 15:16 (13:16 UTC)


TAF: chybějící

Stav a předpovědi počasí z více než 4 000 letišť (zprávy METAR a TAF).

Červené a žluté tečky na mapě představují dostupné meteorologické stanice.

Když kurzor umístíte na tečku, zobrazí se název stanice.

Pak kliknutím zobrazíte stav a předpověď počasí.

Chcete-li změnit mapu, kliknutím na zelené tlačítko se znaménkem +mapu přiblížíte, kliknutím na zelené tlačítko se znaménkem – mapu oddálíte a kliknutím na zelené šipky přejdete na sousední mapy.


METAR-TAF: